Brindisi, Italy

6:14 AM CET on January 25, 2015 (GMT +0100)
ILENOVOL2 | Change Station
CLOSE
Current Station
Personal Weather Station
Location: Novoli, Puglia
Elevation: 121 ft
Nearby Weather Stations
Active Advisory: Wind

Elev 121 ft 40.37 °N, 18.05 °E | Updated 14 minutes ago

Clear
Clear
44.0 °F
Feels Like 44 °F
N
0.0
Wind Variable Wind from SW
Gusts 2.0 mph

Today
High -- | Low -- °F
--% Chance of Precip.
Yesterday
High -- | Low -- °F
Precip. -- in
7:04 AM 4:56 PM
Waxing Crescent, 28% visible
Pressure 29.71 in
Visibility -9999.0 miles
Clouds
Windchill 44 °F
Dew Point 41 °F
Humidity 89%
Rainfall 0.00 in
Snow Depth Not available.
UV Not available.
Pollen Not available.
Air Quality Not available.
Flu Activity Not available.
METAR LIBN 250455Z 24003KT CAVOK 05/02 Q1006 RMK FEW FEW100 VIS MIN 9999 WIND THR14 21001KT BLU

More Conditions Fewer Conditions

Pressure 29.71 in
Visibility -9999.0 miles
Clouds
Windchill 44 °F
Dew Point 41 °F
Humidity 89%
Rainfall 0.00 in
Snow Depth Not available.
UV Not available.
Pollen Not available.
Air Quality Not available.
Flu Activity Not available.
METAR LIBN 250455Z 24003KT CAVOK 05/02 Q1006 RMK FEW FEW100 VIS MIN 9999 WIND THR14 21001KT BLU

More Conditions Fewer Conditions

10-Day Weather Forecast

Almanac

Astronomy

Jan. 25, 2015 Rise Set
Actual Time
Civil Twilight
Nautical Twilight
Astronomical Twilight
Moon
Length of Visible Light
Length of Day
Tomorrow will be .
, % of the Moon is Illuminated

Today's Extremes

Country Highs Country Lows

Community

WunderPhotos

Upload Photos

1,789,843 photos uploaded!

WunderBlogs® & News

Nearby

Air Quality

  Air Quality AQ Index Pollutant
Not available.

Snow Depth

Station Depth Elevation

Earthquake Activity

City Distance Mag. Time & Date
Minimum magnitude displayed is 2.5.

Coastal Water Temperatures

Place Temperature

Nearby Weather Stations